sensor_id;sensor_type;location;lat;lon;timestamp;P1;durP1;ratioP1;P2;durP2;ratioP2
51612;SDS011;37694;51.748;14.326;2023-06-14T00:01:24;1.80;;;1.20;;
51612;SDS011;37694;51.748;14.326;2023-06-14T00:03:50;1.33;;;1.10;;
51612;SDS011;37694;51.748;14.326;2023-06-14T00:06:16;1.63;;;1.27;;
51612;SDS011;37694;51.748;14.326;2023-06-14T00:08:42;0.98;;;0.98;;
51612;SDS011;37694;51.748;14.326;2023-06-14T00:11:08;1.00;;;1.00;;
51612;SDS011;37694;51.748;14.326;2023-06-14T00:13:34;1.35;;;1.25;;
51612;SDS011;37694;51.748;14.326;2023-06-14T00:16:00;2.92;;;1.00;;
51612;SDS011;37694;51.748;14.326;2023-06-14T00:18:25;2.13;;;1.15;;
51612;SDS011;37694;51.748;14.326;2023-06-14T00:20:54;1.33;;;1.13;;
51612;SDS011;37694;51.748;14.326;2023-06-14T00:23:20;1.10;;;1.00;;
51612;SDS011;37694;51.748;14.326;2023-06-14T00:25:46;0.98;;;0.98;;
51612;SDS011;37694;51.748;14.326;2023-06-14T00:28:12;1.40;;;1.10;;
51612;SDS011;37694;51.748;14.326;2023-06-14T00:30:38;1.48;;;1.30;;
51612;SDS011;37694;51.748;14.326;2023-06-14T00:33:04;1.00;;;1.00;;
51612;SDS011;37694;51.748;14.326;2023-06-14T00:35:29;1.50;;;1.40;;
51612;SDS011;37694;51.748;14.326;2023-06-14T00:37:55;1.70;;;1.13;;
51612;SDS011;37694;51.748;14.326;2023-06-14T00:40:21;2.15;;;1.10;;
51612;SDS011;37694;51.748;14.326;2023-06-14T00:42:47;1.00;;;1.00;;
51612;SDS011;37694;51.748;14.326;2023-06-14T00:45:13;1.35;;;1.15;;
51612;SDS011;37694;51.748;14.326;2023-06-14T00:47:39;1.30;;;1.20;;
51612;SDS011;37694;51.748;14.326;2023-06-14T00:50:07;1.38;;;0.98;;
51612;SDS011;37694;51.748;14.326;2023-06-14T00:52:34;1.30;;;1.20;;
51612;SDS011;37694;51.748;14.326;2023-06-14T00:55:01;0.80;;;0.80;;
51612;SDS011;37694;51.748;14.326;2023-06-14T00:57:27;1.33;;;1.20;;
51612;SDS011;37694;51.748;14.326;2023-06-14T00:59:54;1.42;;;1.13;;
51612;SDS011;37694;51.748;14.326;2023-06-14T01:02:20;1.90;;;1.00;;
51612;SDS011;37694;51.748;14.326;2023-06-14T01:04:47;1.05;;;1.05;;
51612;SDS011;37694;51.748;14.326;2023-06-14T01:10:20;2.55;;;1.42;;
51612;SDS011;37694;51.748;14.326;2023-06-14T01:15:44;1.00;;;1.00;;
51612;SDS011;37694;51.748;14.326;2023-06-14T01:18:11;2.80;;;1.30;;
51612;SDS011;37694;51.748;14.326;2023-06-14T01:20:42;1.55;;;1.17;;
51612;SDS011;37694;51.748;14.326;2023-06-14T01:23:10;4.97;;;0.93;;
51612;SDS011;37694;51.748;14.326;2023-06-14T01:25:40;1.27;;;1.17;;
51612;SDS011;37694;51.748;14.326;2023-06-14T01:28:09;1.52;;;1.10;;
51612;SDS011;37694;51.748;14.326;2023-06-14T01:30:40;1.75;;;1.10;;
51612;SDS011;37694;51.748;14.326;2023-06-14T01:33:20;3.17;;;1.10;;
51612;SDS011;37694;51.748;14.326;2023-06-14T01:35:48;1.35;;;1.25;;
51612;SDS011;37694;51.748;14.326;2023-06-14T01:38:15;2.08;;;0.82;;
51612;SDS011;37694;51.748;14.326;2023-06-14T01:40:46;0.90;;;0.90;;
51612;SDS011;37694;51.748;14.326;2023-06-14T01:43:13;1.33;;;1.23;;
51612;SDS011;37694;51.748;14.326;2023-06-14T01:45:41;2.22;;;1.00;;
51612;SDS011;37694;51.748;14.326;2023-06-14T01:48:09;1.00;;;1.00;;
51612;SDS011;37694;51.748;14.326;2023-06-14T01:50:35;3.10;;;1.10;;
51612;SDS011;37694;51.748;14.326;2023-06-14T01:53:01;1.20;;;1.02;;
51612;SDS011;37694;51.748;14.326;2023-06-14T01:55:26;1.27;;;1.17;;
51612;SDS011;37694;51.748;14.326;2023-06-14T01:57:52;1.40;;;1.27;;
51612;SDS011;37694;51.748;14.326;2023-06-14T02:00:19;1.15;;;1.10;;
51612;SDS011;37694;51.748;14.326;2023-06-14T02:02:46;1.67;;;1.08;;
51612;SDS011;37694;51.748;14.326;2023-06-14T02:05:12;2.85;;;1.02;;
51612;SDS011;37694;51.748;14.326;2023-06-14T02:07:37;2.53;;;1.38;;
51612;SDS011;37694;51.748;14.326;2023-06-14T02:10:04;5.72;;;1.42;;
51612;SDS011;37694;51.748;14.326;2023-06-14T02:12:30;1.77;;;0.95;;
51612;SDS011;37694;51.748;14.326;2023-06-14T02:14:55;1.40;;;1.30;;
51612;SDS011;37694;51.748;14.326;2023-06-14T02:17:21;2.53;;;1.10;;
51612;SDS011;37694;51.748;14.326;2023-06-14T02:19:47;5.40;;;1.42;;
51612;SDS011;37694;51.748;14.326;2023-06-14T02:22:14;1.02;;;0.70;;
51612;SDS011;37694;51.748;14.326;2023-06-14T02:24:40;1.45;;;0.90;;
51612;SDS011;37694;51.748;14.326;2023-06-14T02:27:07;1.95;;;1.30;;
51612;SDS011;37694;51.748;14.326;2023-06-14T02:29:35;0.77;;;0.77;;
51612;SDS011;37694;51.748;14.326;2023-06-14T02:32:01;1.10;;;1.05;;
51612;SDS011;37694;51.748;14.326;2023-06-14T02:34:26;0.88;;;0.88;;
51612;SDS011;37694;51.748;14.326;2023-06-14T02:36:52;1.52;;;0.88;;
51612;SDS011;37694;51.748;14.326;2023-06-14T02:39:18;1.35;;;1.05;;
51612;SDS011;37694;51.748;14.326;2023-06-14T02:41:46;1.20;;;1.08;;
51612;SDS011;37694;51.748;14.326;2023-06-14T02:44:13;1.20;;;1.10;;
51612;SDS011;37694;51.748;14.326;2023-06-14T02:46:39;1.00;;;1.00;;
51612;SDS011;37694;51.748;14.326;2023-06-14T02:49:04;1.13;;;1.00;;
51612;SDS011;37694;51.748;14.326;2023-06-14T02:51:30;1.25;;;1.10;;
51612;SDS011;37694;51.748;14.326;2023-06-14T02:53:56;1.42;;;1.30;;
51612;SDS011;37694;51.748;14.326;2023-06-14T02:56:22;1.15;;;0.80;;
51612;SDS011;37694;51.748;14.326;2023-06-14T02:58:48;1.15;;;1.15;;
51612;SDS011;37694;51.748;14.326;2023-06-14T03:01:13;1.02;;;1.00;;
51612;SDS011;37694;51.748;14.326;2023-06-14T03:03:39;2.17;;;1.35;;
51612;SDS011;37694;51.748;14.326;2023-06-14T03:06:05;1.42;;;1.30;;
51612;SDS011;37694;51.748;14.326;2023-06-14T03:08:33;1.42;;;1.33;;
51612;SDS011;37694;51.748;14.326;2023-06-14T03:11:03;1.30;;;1.15;;
51612;SDS011;37694;51.748;14.326;2023-06-14T03:13:36;1.08;;;1.08;;
51612;SDS011;37694;51.748;14.326;2023-06-14T03:16:02;2.20;;;1.23;;
51612;SDS011;37694;51.748;14.326;2023-06-14T03:18:31;1.23;;;1.13;;
51612;SDS011;37694;51.748;14.326;2023-06-14T03:21:00;1.10;;;1.00;;
51612;SDS011;37694;51.748;14.326;2023-06-14T03:23:29;1.67;;;1.20;;
51612;SDS011;37694;51.748;14.326;2023-06-14T03:25:54;1.10;;;1.10;;
51612;SDS011;37694;51.748;14.326;2023-06-14T03:28:21;1.00;;;0.88;;
51612;SDS011;37694;51.748;14.326;2023-06-14T03:30:46;1.20;;;1.05;;
51612;SDS011;37694;51.748;14.326;2023-06-14T03:33:12;1.70;;;1.10;;
51612;SDS011;37694;51.748;14.326;2023-06-14T03:35:37;1.00;;;1.00;;
51612;SDS011;37694;51.748;14.326;2023-06-14T03:38:03;3.55;;;1.13;;
51612;SDS011;37694;51.748;14.326;2023-06-14T03:40:29;1.10;;;1.00;;
51612;SDS011;37694;51.748;14.326;2023-06-14T03:42:55;2.97;;;0.98;;
51612;SDS011;37694;51.748;14.326;2023-06-14T03:45:20;1.23;;;1.13;;
51612;SDS011;37694;51.748;14.326;2023-06-14T03:47:46;2.13;;;1.33;;
51612;SDS011;37694;51.748;14.326;2023-06-14T03:50:12;1.02;;;1.00;;
51612;SDS011;37694;51.748;14.326;2023-06-14T03:52:38;0.80;;;0.80;;
51612;SDS011;37694;51.748;14.326;2023-06-14T03:55:07;1.17;;;0.75;;
51612;SDS011;37694;51.748;14.326;2023-06-14T03:57:33;6.88;;;1.33;;
51612;SDS011;37694;51.748;14.326;2023-06-14T03:59:59;1.20;;;1.10;;
51612;SDS011;37694;51.748;14.326;2023-06-14T04:02:25;1.02;;;0.80;;
51612;SDS011;37694;51.748;14.326;2023-06-14T04:04:53;3.70;;;1.00;;
51612;SDS011;37694;51.748;14.326;2023-06-14T04:07:19;0.98;;;0.98;;
51612;SDS011;37694;51.748;14.326;2023-06-14T04:09:45;0.90;;;0.90;;
51612;SDS011;37694;51.748;14.326;2023-06-14T04:12:12;1.13;;;0.90;;
51612;SDS011;37694;51.748;14.326;2023-06-14T04:14:38;1.40;;;1.30;;
51612;SDS011;37694;51.748;14.326;2023-06-14T04:17:05;1.05;;;0.95;;
51612;SDS011;37694;51.748;14.326;2023-06-14T04:19:31;2.03;;;1.10;;
51612;SDS011;37694;51.748;14.326;2023-06-14T04:21:57;1.00;;;1.00;;
51612;SDS011;37694;51.748;14.326;2023-06-14T04:24:26;1.10;;;0.80;;
51612;SDS011;37694;51.748;14.326;2023-06-14T04:26:57;1.02;;;1.02;;
51612;SDS011;37694;51.748;14.326;2023-06-14T04:29:24;1.05;;;1.05;;
51612;SDS011;37694;51.748;14.326;2023-06-14T04:31:51;1.27;;;1.17;;
51612;SDS011;37694;51.748;14.326;2023-06-14T04:34:18;1.00;;;0.95;;
51612;SDS011;37694;51.748;14.326;2023-06-14T04:36:44;1.00;;;1.00;;
51612;SDS011;37694;51.748;14.326;2023-06-14T04:39:18;0.98;;;0.95;;
51612;SDS011;37694;51.748;14.326;2023-06-14T04:41:49;2.78;;;1.48;;
51612;SDS011;37694;51.748;14.326;2023-06-14T04:44:21;0.90;;;0.90;;
51612;SDS011;37694;51.748;14.326;2023-06-14T04:46:55;1.20;;;1.10;;
51612;SDS011;37694;51.748;14.326;2023-06-14T04:49:24;0.90;;;0.90;;
51612;SDS011;37694;51.748;14.326;2023-06-14T04:51:52;1.20;;;1.00;;
51612;SDS011;37694;51.748;14.326;2023-06-14T04:54:22;1.85;;;1.20;;
51612;SDS011;37694;51.748;14.326;2023-06-14T04:56:50;2.05;;;0.90;;
51612;SDS011;37694;51.748;14.326;2023-06-14T04:59:16;0.82;;;0.82;;
51612;SDS011;37694;51.748;14.326;2023-06-14T05:01:44;1.10;;;1.00;;
51612;SDS011;37694;51.748;14.326;2023-06-14T05:04:14;1.30;;;1.00;;
51612;SDS011;37694;51.748;14.326;2023-06-14T05:06:41;1.98;;;1.30;;
51612;SDS011;37694;51.748;14.326;2023-06-14T05:09:15;1.05;;;1.00;;
51612;SDS011;37694;51.748;14.326;2023-06-14T05:11:42;1.55;;;1.15;;
51612;SDS011;37694;51.748;14.326;2023-06-14T05:14:09;1.77;;;1.10;;
51612;SDS011;37694;51.748;14.326;2023-06-14T05:16:38;0.90;;;0.90;;
51612;SDS011;37694;51.748;14.326;2023-06-14T05:19:04;5.10;;;1.42;;
51612;SDS011;37694;51.748;14.326;2023-06-14T05:21:30;1.00;;;1.00;;
51612;SDS011;37694;51.748;14.326;2023-06-14T05:23:58;4.10;;;0.95;;
51612;SDS011;37694;51.748;14.326;2023-06-14T05:26:24;1.45;;;0.95;;
51612;SDS011;37694;51.748;14.326;2023-06-14T05:28:53;1.00;;;0.90;;
51612;SDS011;37694;51.748;14.326;2023-06-14T05:31:21;6.65;;;1.15;;
51612;SDS011;37694;51.748;14.326;2023-06-14T05:33:48;7.13;;;1.67;;
51612;SDS011;37694;51.748;14.326;2023-06-14T05:36:13;4.55;;;1.33;;
51612;SDS011;37694;51.748;14.326;2023-06-14T05:38:39;2.50;;;1.13;;
51612;SDS011;37694;51.748;14.326;2023-06-14T05:41:05;7.30;;;1.50;;
51612;SDS011;37694;51.748;14.326;2023-06-14T05:43:30;4.32;;;1.48;;
51612;SDS011;37694;51.748;14.326;2023-06-14T05:45:56;5.57;;;1.70;;
51612;SDS011;37694;51.748;14.326;2023-06-14T05:48:22;4.35;;;1.30;;
51612;SDS011;37694;51.748;14.326;2023-06-14T05:50:48;8.75;;;1.75;;
51612;SDS011;37694;51.748;14.326;2023-06-14T05:53:13;13.32;;;2.50;;
51612;SDS011;37694;51.748;14.326;2023-06-14T05:55:39;5.35;;;1.63;;
51612;SDS011;37694;51.748;14.326;2023-06-14T05:58:05;18.95;;;2.13;;
51612;SDS011;37694;51.748;14.326;2023-06-14T06:00:31;13.45;;;2.45;;
51612;SDS011;37694;51.748;14.326;2023-06-14T06:02:56;18.60;;;3.45;;
51612;SDS011;37694;51.748;14.326;2023-06-14T06:05:23;14.73;;;3.63;;
51612;SDS011;37694;51.748;14.326;2023-06-14T06:07:49;73.80;;;8.90;;
51612;SDS011;37694;51.748;14.326;2023-06-14T06:10:14;100.47;;;11.25;;
51612;SDS011;37694;51.748;14.326;2023-06-14T06:12:43;70.15;;;9.98;;
51612;SDS011;37694;51.748;14.326;2023-06-14T06:15:09;55.42;;;8.95;;
51612;SDS011;37694;51.748;14.326;2023-06-14T06:17:38;65.30;;;9.30;;
51612;SDS011;37694;51.748;14.326;2023-06-14T06:20:04;61.25;;;7.38;;
51612;SDS011;37694;51.748;14.326;2023-06-14T06:22:33;42.30;;;6.40;;
51612;SDS011;37694;51.748;14.326;2023-06-14T06:25:01;57.38;;;7.72;;
51612;SDS011;37694;51.748;14.326;2023-06-14T06:27:27;49.38;;;6.32;;
51612;SDS011;37694;51.748;14.326;2023-06-14T06:29:53;37.20;;;6.55;;
51612;SDS011;37694;51.748;14.326;2023-06-14T06:32:19;44.13;;;7.38;;
51612;SDS011;37694;51.748;14.326;2023-06-14T06:34:45;34.05;;;5.88;;
51612;SDS011;37694;51.748;14.326;2023-06-14T06:37:11;26.95;;;5.63;;
51612;SDS011;37694;51.748;14.326;2023-06-14T06:39:36;33.58;;;5.88;;
51612;SDS011;37694;51.748;14.326;2023-06-14T06:42:02;29.65;;;6.40;;
51612;SDS011;37694;51.748;14.326;2023-06-14T06:44:28;33.70;;;4.72;;
51612;SDS011;37694;51.748;14.326;2023-06-14T06:46:54;43.47;;;5.60;;
51612;SDS011;37694;51.748;14.326;2023-06-14T06:49:19;25.95;;;5.97;;
51612;SDS011;37694;51.748;14.326;2023-06-14T06:51:58;31.42;;;5.50;;
51612;SDS011;37694;51.748;14.326;2023-06-14T06:54:26;30.90;;;5.00;;
51612;SDS011;37694;51.748;14.326;2023-06-14T06:56:51;22.70;;;4.40;;
51612;SDS011;37694;51.748;14.326;2023-06-14T06:59:17;27.48;;;5.35;;
51612;SDS011;37694;51.748;14.326;2023-06-14T07:01:43;19.67;;;4.68;;
51612;SDS011;37694;51.748;14.326;2023-06-14T07:04:08;18.30;;;4.80;;
51612;SDS011;37694;51.748;14.326;2023-06-14T07:06:34;28.88;;;4.53;;
51612;SDS011;37694;51.748;14.326;2023-06-14T07:09:00;21.10;;;4.53;;
51612;SDS011;37694;51.748;14.326;2023-06-14T07:11:27;23.95;;;4.55;;
51612;SDS011;37694;51.748;14.326;2023-06-14T07:13:52;18.80;;;5.22;;
51612;SDS011;37694;51.748;14.326;2023-06-14T07:16:18;9.40;;;3.40;;
51612;SDS011;37694;51.748;14.326;2023-06-14T07:18:44;18.38;;;5.07;;
51612;SDS011;37694;51.748;14.326;2023-06-14T07:21:09;12.38;;;3.78;;
51612;SDS011;37694;51.748;14.326;2023-06-14T07:23:36;20.15;;;4.35;;
51612;SDS011;37694;51.748;14.326;2023-06-14T07:26:02;18.33;;;4.07;;
51612;SDS011;37694;51.748;14.326;2023-06-14T07:28:27;15.20;;;4.30;;
51612;SDS011;37694;51.748;14.326;2023-06-14T07:30:53;18.65;;;4.18;;
51612;SDS011;37694;51.748;14.326;2023-06-14T07:33:19;12.80;;;3.55;;
51612;SDS011;37694;51.748;14.326;2023-06-14T07:35:45;13.15;;;3.58;;
51612;SDS011;37694;51.748;14.326;2023-06-14T07:38:11;12.82;;;3.50;;
51612;SDS011;37694;51.748;14.326;2023-06-14T07:40:36;14.65;;;4.15;;
51612;SDS011;37694;51.748;14.326;2023-06-14T07:43:02;18.27;;;4.20;;
51612;SDS011;37694;51.748;14.326;2023-06-14T07:45:28;8.65;;;3.80;;
51612;SDS011;37694;51.748;14.326;2023-06-14T07:47:54;12.98;;;3.70;;
51612;SDS011;37694;51.748;14.326;2023-06-14T07:50:20;9.63;;;3.85;;
51612;SDS011;37694;51.748;14.326;2023-06-14T07:52:45;9.32;;;3.55;;
51612;SDS011;37694;51.748;14.326;2023-06-14T07:55:13;14.50;;;3.22;;
51612;SDS011;37694;51.748;14.326;2023-06-14T07:57:40;13.35;;;4.10;;
51612;SDS011;37694;51.748;14.326;2023-06-14T08:00:06;12.60;;;3.28;;
51612;SDS011;37694;51.748;14.326;2023-06-14T08:02:32;9.95;;;3.70;;
51612;SDS011;37694;51.748;14.326;2023-06-14T08:04:57;14.23;;;3.58;;
51612;SDS011;37694;51.748;14.326;2023-06-14T08:07:24;8.43;;;3.47;;
51612;SDS011;37694;51.748;14.326;2023-06-14T08:09:49;12.55;;;3.60;;
51612;SDS011;37694;51.748;14.326;2023-06-14T08:12:15;8.45;;;3.30;;
51612;SDS011;37694;51.748;14.326;2023-06-14T08:14:41;10.35;;;3.30;;
51612;SDS011;37694;51.748;14.326;2023-06-14T08:17:07;6.97;;;3.13;;
51612;SDS011;37694;51.748;14.326;2023-06-14T08:19:33;7.60;;;3.60;;
51612;SDS011;37694;51.748;14.326;2023-06-14T08:21:59;8.60;;;3.35;;
51612;SDS011;37694;51.748;14.326;2023-06-14T08:24:25;5.80;;;2.78;;
51612;SDS011;37694;51.748;14.326;2023-06-14T08:26:53;7.50;;;2.78;;
51612;SDS011;37694;51.748;14.326;2023-06-14T08:29:19;8.50;;;3.35;;
51612;SDS011;37694;51.748;14.326;2023-06-14T08:31:45;6.03;;;2.88;;
51612;SDS011;37694;51.748;14.326;2023-06-14T08:34:11;8.00;;;3.40;;
51612;SDS011;37694;51.748;14.326;2023-06-14T08:36:37;10.75;;;3.08;;
51612;SDS011;37694;51.748;14.326;2023-06-14T08:39:03;6.15;;;3.15;;
51612;SDS011;37694;51.748;14.326;2023-06-14T08:41:28;8.73;;;2.95;;
51612;SDS011;37694;51.748;14.326;2023-06-14T08:43:55;7.82;;;3.08;;
51612;SDS011;37694;51.748;14.326;2023-06-14T08:46:21;7.95;;;3.47;;
51612;SDS011;37694;51.748;14.326;2023-06-14T08:48:50;8.07;;;3.55;;
51612;SDS011;37694;51.748;14.326;2023-06-14T08:51:22;6.15;;;2.90;;
51612;SDS011;37694;51.748;14.326;2023-06-14T08:53:51;4.53;;;2.97;;
51612;SDS011;37694;51.748;14.326;2023-06-14T08:56:22;8.60;;;3.08;;
51612;SDS011;37694;51.748;14.326;2023-06-14T08:58:52;6.13;;;2.70;;
51612;SDS011;37694;51.748;14.326;2023-06-14T09:01:19;4.70;;;2.90;;
51612;SDS011;37694;51.748;14.326;2023-06-14T09:03:46;14.32;;;3.03;;
51612;SDS011;37694;51.748;14.326;2023-06-14T09:06:14;3.75;;;2.78;;
51612;SDS011;37694;51.748;14.326;2023-06-14T09:08:42;5.45;;;3.05;;
51612;SDS011;37694;51.748;14.326;2023-06-14T09:11:12;4.50;;;2.83;;
51612;SDS011;37694;51.748;14.326;2023-06-14T09:13:39;3.55;;;2.35;;
51612;SDS011;37694;51.748;14.326;2023-06-14T09:16:06;7.68;;;3.03;;
51612;SDS011;37694;51.748;14.326;2023-06-14T09:23:44;9.13;;;2.95;;
51612;SDS011;37694;51.748;14.326;2023-06-14T09:28:41;4.45;;;2.63;;
51612;SDS011;37694;51.748;14.326;2023-06-14T09:31:14;6.55;;;2.67;;
51612;SDS011;37694;51.748;14.326;2023-06-14T09:33:42;6.05;;;3.00;;
51612;SDS011;37694;51.748;14.326;2023-06-14T09:36:16;3.72;;;2.58;;
51612;SDS011;37694;51.748;14.326;2023-06-14T09:38:53;4.85;;;2.97;;
51612;SDS011;37694;51.748;14.326;2023-06-14T09:41:30;5.50;;;2.40;;
51612;SDS011;37694;51.748;14.326;2023-06-14T09:43:59;4.15;;;2.55;;
51612;SDS011;37694;51.748;14.326;2023-06-14T09:46:27;5.38;;;2.35;;
51612;SDS011;37694;51.748;14.326;2023-06-14T09:48:59;3.42;;;2.35;;
51612;SDS011;37694;51.748;14.326;2023-06-14T09:51:26;3.35;;;2.60;;
51612;SDS011;37694;51.748;14.326;2023-06-14T09:53:53;5.07;;;2.13;;
51612;SDS011;37694;51.748;14.326;2023-06-14T09:56:40;4.15;;;2.55;;
51612;SDS011;37694;51.748;14.326;2023-06-14T09:59:09;3.23;;;2.93;;
51612;SDS011;37694;51.748;14.326;2023-06-14T10:01:39;5.07;;;2.70;;
51612;SDS011;37694;51.748;14.326;2023-06-14T10:04:07;4.65;;;2.50;;
51612;SDS011;37694;51.748;14.326;2023-06-14T10:06:35;3.50;;;2.47;;
51612;SDS011;37694;51.748;14.326;2023-06-14T10:09:03;5.68;;;2.95;;
51612;SDS011;37694;51.748;14.326;2023-06-14T10:11:32;6.45;;;2.40;;
51612;SDS011;37694;51.748;14.326;2023-06-14T10:14:00;3.55;;;2.35;;
51612;SDS011;37694;51.748;14.326;2023-06-14T10:24:43;3.83;;;2.17;;
51612;SDS011;37694;51.748;14.326;2023-06-14T10:27:11;3.72;;;2.55;;
51612;SDS011;37694;51.748;14.326;2023-06-14T10:32:23;2.85;;;2.22;;
51612;SDS011;37694;51.748;14.326;2023-06-14T10:37:25;2.80;;;1.98;;
51612;SDS011;37694;51.748;14.326;2023-06-14T10:39:51;3.33;;;2.47;;
51612;SDS011;37694;51.748;14.326;2023-06-14T10:42:18;3.92;;;2.33;;
51612;SDS011;37694;51.748;14.326;2023-06-14T10:52:23;3.53;;;2.47;;
51612;SDS011;37694;51.748;14.326;2023-06-14T10:57:26;2.80;;;2.13;;
51612;SDS011;37694;51.748;14.326;2023-06-14T10:59:52;3.42;;;2.72;;
51612;SDS011;37694;51.748;14.326;2023-06-14T11:05:05;2.72;;;2.20;;
51612;SDS011;37694;51.748;14.326;2023-06-14T11:10:37;2.30;;;2.10;;
51612;SDS011;37694;51.748;14.326;2023-06-14T11:13:03;2.95;;;1.90;;
51612;SDS011;37694;51.748;14.326;2023-06-14T11:15:32;3.97;;;2.60;;
51612;SDS011;37694;51.748;14.326;2023-06-14T11:18:00;3.95;;;1.85;;
51612;SDS011;37694;51.748;14.326;2023-06-14T11:20:29;2.08;;;1.88;;
51612;SDS011;37694;51.748;14.326;2023-06-14T11:22:56;2.65;;;2.15;;
51612;SDS011;37694;51.748;14.326;2023-06-14T11:25:21;2.85;;;2.17;;
51612;SDS011;37694;51.748;14.326;2023-06-14T11:27:49;3.88;;;2.20;;
51612;SDS011;37694;51.748;14.326;2023-06-14T11:30:15;3.90;;;2.33;;
51612;SDS011;37694;51.748;14.326;2023-06-14T11:32:41;4.05;;;2.17;;
51612;SDS011;37694;51.748;14.326;2023-06-14T11:35:07;3.03;;;2.08;;
51612;SDS011;37694;51.748;14.326;2023-06-14T11:37:35;2.90;;;2.00;;
51612;SDS011;37694;51.748;14.326;2023-06-14T11:40:02;2.30;;;2.10;;
51612;SDS011;37694;51.748;14.326;2023-06-14T11:42:36;2.95;;;2.17;;
51612;SDS011;37694;51.748;14.326;2023-06-14T11:45:02;2.95;;;2.05;;
51612;SDS011;37694;51.748;14.326;2023-06-14T11:47:33;5.53;;;2.53;;
51612;SDS011;37694;51.748;14.326;2023-06-14T11:50:00;3.88;;;1.90;;
51612;SDS011;37694;51.748;14.326;2023-06-14T11:52:27;2.50;;;2.10;;
51612;SDS011;37694;51.748;14.326;2023-06-14T11:54:53;3.70;;;2.08;;
51612;SDS011;37694;51.748;14.326;2023-06-14T11:57:19;4.85;;;2.58;;
51612;SDS011;37694;51.748;14.326;2023-06-14T11:59:46;3.70;;;2.10;;
51612;SDS011;37694;51.748;14.326;2023-06-14T12:02:19;4.13;;;2.33;;
51612;SDS011;37694;51.748;14.326;2023-06-14T12:04:46;3.20;;;2.35;;
51612;SDS011;37694;51.748;14.326;2023-06-14T12:07:16;2.85;;;1.92;;
51612;SDS011;37694;51.748;14.326;2023-06-14T12:12:22;3.70;;;2.22;;
51612;SDS011;37694;51.748;14.326;2023-06-14T12:14:50;2.25;;;1.65;;
51612;SDS011;37694;51.748;14.326;2023-06-14T12:17:16;4.00;;;2.25;;
51612;SDS011;37694;51.748;14.326;2023-06-14T12:19:43;1.83;;;1.67;;
51612;SDS011;37694;51.748;14.326;2023-06-14T12:22:10;1.70;;;1.60;;
51612;SDS011;37694;51.748;14.326;2023-06-14T12:24:36;1.70;;;1.60;;
51612;SDS011;37694;51.748;14.326;2023-06-14T12:27:03;1.42;;;1.33;;
51612;SDS011;37694;51.748;14.326;2023-06-14T12:29:29;1.55;;;1.42;;
51612;SDS011;37694;51.748;14.326;2023-06-14T12:31:56;1.40;;;1.40;;
51612;SDS011;37694;51.748;14.326;2023-06-14T12:34:25;1.52;;;1.42;;
51612;SDS011;37694;51.748;14.326;2023-06-14T12:36:52;1.45;;;1.35;;
51612;SDS011;37694;51.748;14.326;2023-06-14T12:39:18;1.67;;;1.23;;
51612;SDS011;37694;51.748;14.326;2023-06-14T12:41:44;1.23;;;1.20;;
51612;SDS011;37694;51.748;14.326;2023-06-14T12:44:11;1.67;;;1.10;;
51612;SDS011;37694;51.748;14.326;2023-06-14T12:46:37;1.70;;;1.60;;
51612;SDS011;37694;51.748;14.326;2023-06-14T12:49:04;1.35;;;1.25;;
51612;SDS011;37694;51.748;14.326;2023-06-14T12:51:31;1.30;;;1.10;;
51612;SDS011;37694;51.748;14.326;2023-06-14T12:53:57;1.15;;;1.15;;
51612;SDS011;37694;51.748;14.326;2023-06-14T12:56:23;0.93;;;0.82;;
51612;SDS011;37694;51.748;14.326;2023-06-14T12:58:48;0.98;;;0.98;;
51612;SDS011;37694;51.748;14.326;2023-06-14T13:01:14;1.10;;;1.10;;
51612;SDS011;37694;51.748;14.326;2023-06-14T13:03:40;1.73;;;1.20;;
51612;SDS011;37694;51.748;14.326;2023-06-14T13:06:05;2.70;;;1.08;;
51612;SDS011;37694;51.748;14.326;2023-06-14T13:08:31;2.70;;;1.13;;
51612;SDS011;37694;51.748;14.326;2023-06-14T13:10:57;3.72;;;1.20;;
51612;SDS011;37694;51.748;14.326;2023-06-14T13:13:23;1.45;;;1.35;;
51612;SDS011;37694;51.748;14.326;2023-06-14T13:15:49;1.23;;;1.15;;
51612;SDS011;37694;51.748;14.326;2023-06-14T13:18:15;1.67;;;1.25;;
51612;SDS011;37694;51.748;14.326;2023-06-14T13:20:41;1.15;;;1.08;;
51612;SDS011;37694;51.748;14.326;2023-06-14T13:23:08;0.85;;;0.85;;
51612;SDS011;37694;51.748;14.326;2023-06-14T13:25:34;1.00;;;1.00;;
51612;SDS011;37694;51.748;14.326;2023-06-14T13:28:01;1.88;;;1.55;;
51612;SDS011;37694;51.748;14.326;2023-06-14T13:30:28;1.10;;;1.10;;
51612;SDS011;37694;51.748;14.326;2023-06-14T13:32:55;1.40;;;1.30;;
51612;SDS011;37694;51.748;14.326;2023-06-14T13:35:21;1.27;;;1.17;;
51612;SDS011;37694;51.748;14.326;2023-06-14T13:37:47;1.20;;;1.10;;
51612;SDS011;37694;51.748;14.326;2023-06-14T13:40:12;1.40;;;1.30;;
51612;SDS011;37694;51.748;14.326;2023-06-14T13:42:38;1.17;;;1.17;;
51612;SDS011;37694;51.748;14.326;2023-06-14T13:45:05;1.38;;;1.27;;
51612;SDS011;37694;51.748;14.326;2023-06-14T13:47:31;1.40;;;1.30;;
51612;SDS011;37694;51.748;14.326;2023-06-14T13:49:57;1.58;;;1.30;;
51612;SDS011;37694;51.748;14.326;2023-06-14T13:52:23;4.45;;;1.20;;
51612;SDS011;37694;51.748;14.326;2023-06-14T13:54:49;1.25;;;1.15;;
51612;SDS011;37694;51.748;14.326;2023-06-14T13:57:15;1.17;;;1.15;;
51612;SDS011;37694;51.748;14.326;2023-06-14T13:59:41;1.40;;;1.30;;
51612;SDS011;37694;51.748;14.326;2023-06-14T14:02:09;1.10;;;1.00;;
51612;SDS011;37694;51.748;14.326;2023-06-14T14:04:36;1.17;;;1.17;;
51612;SDS011;37694;51.748;14.326;2023-06-14T14:07:02;1.45;;;1.35;;
51612;SDS011;37694;51.748;14.326;2023-06-14T14:09:28;1.38;;;1.30;;
51612;SDS011;37694;51.748;14.326;2023-06-14T14:11:54;1.10;;;0.98;;
51612;SDS011;37694;51.748;14.326;2023-06-14T14:14:20;1.38;;;1.27;;
51612;SDS011;37694;51.748;14.326;2023-06-14T14:16:46;1.58;;;1.48;;
51612;SDS011;37694;51.748;14.326;2023-06-14T14:19:12;3.97;;;1.35;;
51612;SDS011;37694;51.748;14.326;2023-06-14T14:21:37;1.50;;;1.40;;
51612;SDS011;37694;51.748;14.326;2023-06-14T14:24:03;1.60;;;1.50;;
51612;SDS011;37694;51.748;14.326;2023-06-14T14:26:29;1.33;;;1.23;;
51612;SDS011;37694;51.748;14.326;2023-06-14T14:28:55;2.38;;;1.60;;
51612;SDS011;37694;51.748;14.326;2023-06-14T14:31:20;1.40;;;1.30;;
51612;SDS011;37694;51.748;14.326;2023-06-14T14:33:46;1.50;;;1.40;;
51612;SDS011;37694;51.748;14.326;2023-06-14T14:36:12;1.80;;;1.58;;
51612;SDS011;37694;51.748;14.326;2023-06-14T14:38:38;1.50;;;1.40;;
51612;SDS011;37694;51.748;14.326;2023-06-14T14:41:04;2.47;;;1.80;;
51612;SDS011;37694;51.748;14.326;2023-06-14T14:43:30;1.80;;;1.52;;
51612;SDS011;37694;51.748;14.326;2023-06-14T14:45:57;3.85;;;1.60;;
51612;SDS011;37694;51.748;14.326;2023-06-14T14:48:22;1.63;;;1.42;;
51612;SDS011;37694;51.748;14.326;2023-06-14T14:50:48;1.50;;;1.40;;
51612;SDS011;37694;51.748;14.326;2023-06-14T14:53:14;2.55;;;1.80;;
51612;SDS011;37694;51.748;14.326;2023-06-14T14:55:41;2.05;;;1.60;;
51612;SDS011;37694;51.748;14.326;2023-06-14T14:58:08;3.47;;;2.03;;
51612;SDS011;37694;51.748;14.326;2023-06-14T15:00:34;2.80;;;1.60;;
51612;SDS011;37694;51.748;14.326;2023-06-14T15:03:00;1.73;;;1.63;;
51612;SDS011;37694;51.748;14.326;2023-06-14T15:05:26;1.83;;;1.73;;
51612;SDS011;37694;51.748;14.326;2023-06-14T15:07:52;1.92;;;1.70;;
51612;SDS011;37694;51.748;14.326;2023-06-14T15:10:17;1.55;;;1.30;;
51612;SDS011;37694;51.748;14.326;2023-06-14T15:12:43;2.22;;;1.70;;
51612;SDS011;37694;51.748;14.326;2023-06-14T15:15:09;2.00;;;1.80;;
51612;SDS011;37694;51.748;14.326;2023-06-14T15:17:35;4.38;;;1.88;;